Time;durP1;ratioP1;P1;durP2;ratioP2;P2;SDS_P1;SDS_P2;PMS_P1;PMS_P2;Temp;Humidity;BMP_temperature;BMP_pressure;BME280_temperature;BME280_humidity;BME280_pressure;Samples;Min_cycle;Max_cycle;Signal;HPM_P1;HPM_P2
2022/08/11 00:01:26;;;;;;;4.80;4.07;;;;;;;15.22;100.00;99943.41;5047553;28;20229;-79
2022/08/11 00:04:01;;;;;;;4.50;4.10;;;;;;;15.20;100.00;99947.41;5047723;28;20229;-80
2022/08/11 00:06:34;;;;;;;4.87;4.20;;;;;;;15.14;100.00;99943.81;5047328;28;20894;-79
2022/08/11 00:09:04;;;;;;;4.70;4.27;;;;;;;15.08;100.00;99946.63;5050268;28;20234;-79
2022/08/11 00:11:37;;;;;;;4.47;4.07;;;;;;;15.03;100.00;99943.84;5048547;28;20256;-79
2022/08/11 00:14:12;;;;;;;6.57;4.20;;;;;;;15.01;100.00;99946.81;5046975;28;20229;-80
2022/08/11 00:16:39;;;;;;;7.70;4.60;;;;;;;14.96;100.00;99952.91;5046479;28;20256;-80
2022/08/11 00:19:07;;;;;;;5.80;4.30;;;;;;;14.92;100.00;99950.94;5049043;28;20911;-80
2022/08/11 00:21:40;;;;;;;4.87;4.37;;;;;;;14.89;100.00;99949.53;5033179;28;20256;-79
2022/08/11 00:24:34;;;;;;;5.10;4.40;;;;;;;14.88;100.00;99949.78;5048436;28;20229;-80
2022/08/11 00:27:30;;;;;;;5.20;4.27;;;;;;;14.84;100.00;99954.00;5046280;28;20287;-80
2022/08/11 00:29:57;;;;;;;4.80;4.30;;;;;;;14.77;100.00;99940.66;5045022;28;20702;-81
2022/08/11 00:32:24;;;;;;;5.27;4.00;;;;;;;14.77;100.00;99942.53;5046261;28;20229;-80
2022/08/11 00:34:51;;;;;;;8.20;4.10;;;;;;;14.77;100.00;99942.53;5048605;28;20304;-80
2022/08/11 00:37:38;;;;;;;4.63;4.20;;;;;;;14.74;100.00;99948.41;5045874;28;20224;-79
2022/08/11 00:40:15;;;;;;;4.50;4.10;;;;;;;14.71;100.00;99941.59;5046857;28;20239;-80
2022/08/11 00:43:00;;;;;;;4.50;4.00;;;;;;;14.72;100.00;99945.13;5048456;28;20225;-78
2022/08/11 00:46:01;;;;;;;5.60;4.23;;;;;;;14.72;100.00;99943.25;5030402;28;20251;-80
2022/08/11 00:48:46;;;;;;;4.53;4.13;;;;;;;14.70;100.00;99944.53;5045301;28;20791;-80
2022/08/11 00:51:31;;;;;;;6.03;4.27;;;;;;;14.68;100.00;99942.09;5033245;28;20643;-80
2022/08/11 00:55:03;;;;;;;4.60;4.20;;;;;;;14.67;100.00;99947.72;5044130;28;20240;-82
2022/08/11 00:57:38;;;;;;;5.77;4.40;;;;;;;14.61;100.00;99938.69;5009311;28;20238;-81
2022/08/11 01:00:18;;;;;;;4.63;4.23;;;;;;;14.58;100.00;99941.88;5005675;28;20654;-80
2022/08/11 01:03:20;;;;;;;4.63;4.23;;;;;;;14.54;100.00;99936.16;5043304;28;20239;-81
2022/08/11 01:06:10;;;;;;;4.43;4.03;;;;;;;14.49;100.00;99940.59;5005976;28;20273;-80
2022/08/11 01:09:11;;;;;;;6.80;4.10;;;;;;;14.47;100.00;99937.31;5044523;28;20313;-81
2022/08/11 01:12:03;;;;;;;6.07;4.50;;;;;;;14.45;100.00;99932.19;5049484;28;20659;-80
2022/08/11 01:15:03;;;;;;;4.50;4.10;;;;;;;14.39;100.00;99935.00;5048964;28;20261;-81
2022/08/11 01:17:39;;;;;;;4.30;4.00;;;;;;;14.36;100.00;99932.78;5043788;28;20260;-80
2022/08/11 01:20:13;;;;;;;4.63;4.13;;;;;;;14.33;100.00;99930.50;5050843;28;20253;-80
2022/08/11 01:23:35;;;;;;;4.30;3.90;;;;;;;14.29;100.00;99926.66;5048168;28;20224;-81
2022/08/11 01:26:27;;;;;;;4.50;4.13;;;;;;;14.21;100.00;99930.53;5031185;28;20649;-79
2022/08/11 01:28:53;;;;;;;4.60;4.20;;;;;;;14.16;100.00;99933.13;5043355;28;20252;-79
2022/08/11 01:31:38;;;;;;;4.60;4.20;;;;;;;14.16;100.00;99933.13;5050581;28;20233;-80
2022/08/11 01:34:26;;;;;;;6.90;4.47;;;;;;;14.11;100.00;99941.91;5044717;28;20240;-81
2022/08/11 01:37:15;;;;;;;5.30;4.50;;;;;;;14.00;100.00;99937.31;5046737;28;20287;-82
2022/08/11 01:39:53;;;;;;;4.80;4.40;;;;;;;13.99;100.00;99933.03;5052689;28;20245;-83
2022/08/11 01:45:47;;;;;;;5.20;4.40;;;;;;;13.91;100.00;99941.44;5051187;28;20222;-81
2022/08/11 01:48:28;;;;;;;4.60;4.20;;;;;;;13.85;100.00;99937.00;5055779;28;20229;-80
2022/08/11 01:51:12;;;;;;;5.30;4.20;;;;;;;13.83;100.00;99933.69;5033268;28;20740;-80
2022/08/11 01:53:52;;;;;;;4.47;3.90;;;;;;;13.79;100.00;99934.41;5044082;28;20228;-80
2022/08/11 01:56:41;;;;;;;4.50;4.10;;;;;;;13.78;100.00;99938.16;5049189;28;20240;-81
2022/08/11 01:59:15;;;;;;;4.80;4.40;;;;;;;13.72;100.00;99931.00;5039702;28;20256;-80
2022/08/11 02:02:44;;;;;;;7.10;4.50;;;;;;;13.68;100.00;99936.03;5031547;28;20225;-81
2022/08/11 02:05:16;;;;;;;4.30;4.00;;;;;;;13.62;100.00;99932.38;5047699;28;20822;-80
2022/08/11 02:07:52;;;;;;;5.47;4.17;;;;;;;13.62;100.00;99926.19;5051335;28;20225;-80
2022/08/11 02:13:30;;;;;;;5.93;4.30;;;;;;;13.49;100.00;99931.78;5052437;28;20815;-79
2022/08/11 02:16:25;;;;;;;4.87;4.47;;;;;;;13.46;100.00;99932.25;5053962;28;20649;-78
2022/08/11 02:25:53;;;;;;;5.43;4.73;;;;;;;13.36;100.00;99919.34;5056863;28;20641;-79
2022/08/11 02:28:28;;;;;;;4.97;4.57;;;;;;;13.33;100.00;99910.94;5052316;28;20261;-79
2022/08/11 02:34:38;;;;;;;5.13;4.67;;;;;;;13.25;100.00;99920.13;5056033;28;20217;-79
2022/08/11 02:37:29;;;;;;;5.13;4.63;;;;;;;13.24;100.00;99910.44;5058181;28;20294;-80
2022/08/11 02:40:09;;;;;;;5.40;4.37;;;;;;;13.15;100.00;99920.72;5053026;28;20223;-79
2022/08/11 02:42:51;;;;;;;4.90;4.43;;;;;;;13.09;100.00;99916.22;5052017;28;20227;-79
2022/08/11 02:45:33;;;;;;;4.83;4.43;;;;;;;13.08;100.00;99924.50;5058414;28;20727;-79
2022/08/11 02:51:13;;;;;;;5.20;4.70;;;;;;;13.01;100.00;99926.47;5058849;28;20225;-80
2022/08/11 02:54:25;;;;;;;4.97;4.57;;;;;;;12.98;100.00;99929.59;5058255;28;20227;-80
2022/08/11 02:57:06;;;;;;;5.20;4.73;;;;;;;12.91;100.00;99915.44;5045128;28;20254;-78
2022/08/11 02:59:52;;;;;;;5.20;4.70;;;;;;;12.88;100.00;99921.28;5049203;28;20243;-79
2022/08/11 03:02:30;;;;;;;5.07;4.57;;;;;;;12.87;100.00;99919.63;5049576;28;20281;-79
2022/08/11 03:05:19;;;;;;;5.93;4.67;;;;;;;12.80;100.00;99923.22;5053471;28;20305;-79
2022/08/11 03:08:12;;;;;;;5.10;4.60;;;;;;;12.76;100.00;99913.97;5056201;28;20239;-79
2022/08/11 03:16:53;;;;;;;5.10;4.70;;;;;;;12.69;100.00;99925.88;5054182;28;20759;-80
2022/08/11 03:19:36;;;;;;;5.57;5.00;;;;;;;12.65;100.00;99925.47;5036223;28;20234;-81
2022/08/11 03:22:12;;;;;;;5.17;4.70;;;;;;;12.64;100.00;99923.84;5034019;28;20305;-80
2022/08/11 03:25:02;;;;;;;6.30;4.60;;;;;;;12.55;100.00;99921.69;5050623;28;20240;-79
2022/08/11 03:27:38;;;;;;;5.40;4.50;;;;;;;12.47;100.00;99920.13;5050191;28;20231;-80
2022/08/11 03:30:14;;;;;;;5.20;4.80;;;;;;;12.44;100.00;99922.44;5054741;28;20287;-82
2022/08/11 03:34:01;;;;;;;5.13;4.73;;;;;;;12.44;100.00;99934.00;5042410;28;20235;-82
2022/08/11 03:36:22;;;;;;;5.07;4.67;;;;;;;12.40;100.00;99932.00;5065134;28;20648;-82
2022/08/11 03:39:16;;;;;;;5.10;4.60;;;;;;;12.38;100.00;99923.31;4978835;28;20262;-80
2022/08/11 03:41:46;;;;;;;5.33;4.93;;;;;;;12.32;100.00;99936.59;4964042;28;20225;-81
2022/08/11 03:44:42;;;;;;;5.53;5.07;;;;;;;12.30;100.00;99933.34;4987934;28;20233;-81
2022/08/11 03:47:28;;;;;;;5.07;4.57;;;;;;;12.33;100.00;99934.75;5015652;28;20266;-79
2022/08/11 03:50:22;;;;;;;5.70;5.17;;;;;;;12.33;100.00;99929.38;5038199;28;20707;-80
2022/08/11 03:53:15;;;;;;;5.27;4.87;;;;;;;12.34;100.00;99933.69;5030455;28;20240;-79
2022/08/11 03:56:10;;;;;;;5.40;4.90;;;;;;;12.38;100.00;99932.22;5035574;28;20760;-81
2022/08/11 03:58:46;;;;;;;5.97;5.47;;;;;;;12.44;100.00;99931.31;5010120;28;20309;-82
2022/08/11 04:01:51;;;;;;;5.87;5.13;;;;;;;12.70;100.00;99932.84;5036209;28;20230;-83
2022/08/11 04:04:56;;;;;;;5.57;5.17;;;;;;;12.83;100.00;99931.91;5043049;28;20237;-82
2022/08/11 04:08:02;;;;;;;7.67;5.00;;;;;;;12.85;100.00;99917.16;5031600;28;20652;-82
2022/08/11 04:11:15;;;;;;;4.90;4.50;;;;;;;12.86;100.00;99929.56;5052959;28;20230;-82
2022/08/11 04:17:49;;;;;;;5.63;5.13;;;;;;;12.92;100.00;99935.91;5025413;28;20753;-81
2022/08/11 04:21:04;;;;;;;5.50;5.00;;;;;;;12.96;100.00;99931.72;5038793;28;20231;-83
2022/08/11 04:23:33;;;;;;;6.97;4.83;;;;;;;13.06;100.00;99935.50;5037573;28;20239;-81
2022/08/11 04:26:54;;;;;;;5.40;4.90;;;;;;;13.19;100.00;99943.41;5041198;28;20770;-82
2022/08/11 04:29:52;;;;;;;4.97;4.47;;;;;;;13.32;100.00;99938.88;5028030;28;20278;-84
2022/08/11 04:32:44;;;;;;;5.80;4.83;;;;;;;13.45;100.00;99942.19;5049244;28;20255;-82
2022/08/11 04:35:36;;;;;;;5.40;5.00;;;;;;;13.58;100.00;99941.97;5056160;28;20228;-82
2022/08/11 04:38:48;;;;;;;5.20;4.80;;;;;;;13.79;100.00;99946.00;5057328;28;20236;-82
2022/08/11 04:45:19;;;;;;;5.27;4.87;;;;;;;14.28;100.00;99941.19;5057972;28;20318;-83
2022/08/11 05:01:41;;;;;;;4.70;4.40;;;;;;;15.38;100.00;99936.41;5047583;28;20320;-82
2022/08/11 05:07:44;;;;;;;4.80;4.40;;;;;;;15.78;100.00;99952.50;5053841;28;20233;-81
2022/08/11 05:10:59;;;;;;;4.60;4.20;;;;;;;15.90;100.00;99955.94;5049563;28;20323;-84
2022/08/11 05:36:34;;;;;;;5.13;4.00;;;;;;;17.58;100.00;99946.16;5063550;28;20237;-83
2022/08/11 05:57:08;;;;;;;5.93;4.07;;;;;;;18.94;92.20;99950.84;5049442;28;20291;-82
2022/08/11 05:59:35;;;;;;;6.40;3.47;;;;;;;19.01;88.37;99941.34;5048735;28;20250;-83
2022/08/11 06:02:04;;;;;;;4.43;4.03;;;;;;;19.17;87.52;99951.19;5049082;28;20248;-82
2022/08/11 06:04:32;;;;;;;4.10;3.70;;;;;;;19.22;87.91;99947.69;5052096;28;20231;-83
2022/08/11 06:07:07;;;;;;;4.23;3.83;;;;;;;19.42;82.01;99950.41;5050696;28;20259;-81
2022/08/11 06:09:34;;;;;;;4.50;3.30;;;;;;;19.58;80.32;99949.38;5036490;28;20610;-82
2022/08/11 06:12:05;;;;;;;4.00;3.40;;;;;;;19.71;76.98;99948.03;5035770;28;20328;-81
2022/08/11 06:14:33;;;;;;;3.83;3.40;;;;;;;19.50;78.27;99946.38;5054486;28;20223;-81
2022/08/11 06:17:02;;;;;;;4.00;3.60;;;;;;;19.72;78.09;99949.66;5051110;28;20234;-82
2022/08/11 06:19:34;;;;;;;4.90;3.80;;;;;;;19.97;75.21;99955.06;5050954;28;20662;-81
2022/08/11 06:22:03;;;;;;;3.60;3.30;;;;;;;19.87;74.33;99954.28;5049928;28;20262;-81
2022/08/11 06:24:31;;;;;;;5.83;3.67;;;;;;;20.01;73.26;99949.91;5052473;28;20313;-81
2022/08/11 06:26:59;;;;;;;4.80;3.50;;;;;;;19.88;73.49;99950.44;5047986;28;20250;-82
2022/08/11 06:29:48;;;;;;;5.17;3.83;;;;;;;20.03;71.57;99950.44;5046959;28;20230;-82
2022/08/11 06:32:27;;;;;;;4.33;3.40;;;;;;;20.15;69.54;99951.81;5049416;28;20250;-81
2022/08/11 06:35:06;;;;;;;3.60;3.17;;;;;;;20.33;66.94;99955.88;5049538;28;20249;-80
2022/08/11 06:37:54;;;;;;;3.70;3.40;;;;;;;20.42;65.75;99956.13;5049379;28;20230;-79
2022/08/11 06:40:43;;;;;;;8.63;3.50;;;;;;;20.62;66.66;99954.16;5046620;28;20286;-82
2022/08/11 06:43:19;;;;;;;3.97;3.53;;;;;;;20.64;65.03;99948.44;5047320;28;20238;-79
2022/08/11 06:46:05;;;;;;;5.57;3.40;;;;;;;20.79;64.65;99947.56;5034183;28;20642;-80
2022/08/11 06:48:32;;;;;;;3.77;3.37;;;;;;;20.98;64.65;99956.75;5047506;28;20229;-80
2022/08/11 06:51:12;;;;;;;5.67;3.07;;;;;;;21.15;62.28;99943.59;5049575;28;20226;-80
2022/08/11 06:53:49;;;;;;;4.77;2.90;;;;;;;21.05;62.35;99946.34;5052700;28;20252;-80
2022/08/11 07:02:29;;;;;;;7.13;3.53;;;;;;;21.23;60.15;99942.22;5050548;28;20323;-81
2022/08/11 07:05:26;;;;;;;5.87;3.10;;;;;;;21.09;59.77;99942.78;5048214;28;20232;-81
2022/08/11 07:17:16;;;;;;;6.40;3.80;;;;;;;21.45;59.33;99926.25;5048412;28;20230;-81
2022/08/11 07:31:36;;;;;;;12.00;3.00;;;;;;;22.34;58.59;99923.00;5037820;28;20247;-82
2022/08/11 07:34:26;;;;;;;5.53;3.53;;;;;;;22.33;56.81;99918.66;5041993;28;20221;-80
2022/08/11 07:36:56;;;;;;;6.00;3.20;;;;;;;22.60;56.51;99923.50;5044973;28;20239;-80
2022/08/11 07:39:30;;;;;;;5.47;3.23;;;;;;;22.75;56.10;99925.28;5041423;28;20237;-80
2022/08/11 07:41:58;;;;;;;6.13;3.53;;;;;;;22.80;55.66;99917.84;5051606;28;20243;-80
2022/08/11 07:44:28;;;;;;;6.70;3.10;;;;;;;22.81;54.64;99916.75;5047422;28;20731;-80
2022/08/11 07:52:33;;;;;;;8.00;3.10;;;;;;;23.06;53.54;99918.28;5044523;28;20611;-80
2022/08/11 07:55:11;;;;;;;4.43;2.90;;;;;;;23.15;53.07;99907.50;5030249;28;20333;-84
2022/08/11 08:17:56;;;;;;;3.38;2.67;;;;;;;23.94;46.62;99887.38;5044418;28;20217;-81
2022/08/11 08:20:45;;;;;;;4.25;2.70;;;;;;;24.06;47.13;99889.63;5043677;28;20973;-81
2022/08/11 08:23:12;;;;;;;4.32;2.55;;;;;;;24.06;47.90;99884.97;5047231;28;20842;-81
2022/08/11 08:25:41;;;;;;;3.85;2.47;;;;;;;24.01;47.53;99896.00;5048777;28;20727;-80
2022/08/11 08:28:14;;;;;;;3.50;2.40;;;;;;;24.20;45.11;99884.19;5050426;28;20320;-82
2022/08/11 08:30:49;;;;;;;3.22;2.65;;;;;;;24.42;45.41;99882.38;5039711;28;20228;-81
2022/08/11 08:33:23;;;;;;;4.80;2.70;;;;;;;24.56;44.76;99888.66;5049206;28;20220;-81
2022/08/11 08:36:11;;;;;;;3.88;2.50;;;;;;;24.60;45.67;99880.63;5043110;28;20240;-81
2022/08/11 08:38:48;;;;;;;3.25;2.38;;;;;;;24.66;43.40;99884.91;5028269;28;20221;-80
2022/08/11 08:41:24;;;;;;;3.63;2.40;;;;;;;24.62;42.52;99877.59;5084857;28;20228;-81
2022/08/11 08:43:53;;;;;;;4.07;2.20;;;;;;;24.78;42.20;99878.88;5045679;28;20287;-81
2022/08/11 08:46:27;;;;;;;4.20;2.50;;;;;;;24.87;42.76;99877.88;5051207;28;20721;-81
2022/08/11 08:48:54;;;;;;;5.43;2.70;;;;;;;24.78;42.19;99884.34;5053907;28;20248;-81
2022/08/11 08:51:33;;;;;;;3.22;2.40;;;;;;;24.39;43.06;99880.25;5045485;28;20691;-82
2022/08/11 08:54:36;;;;;;;5.10;2.55;;;;;;;24.48;42.88;99872.13;5045799;28;20243;-81
2022/08/11 08:57:04;;;;;;;2.95;2.22;;;;;;;24.60;43.20;99877.06;5050923;28;20227;-81
2022/08/11 08:59:35;;;;;;;3.17;2.30;;;;;;;24.69;43.13;99867.84;5040577;28;20647;-81
2022/08/11 09:02:16;;;;;;;5.03;2.60;;;;;;;24.83;42.17;99859.59;5050947;28;20601;-82
2022/08/11 09:04:45;;;;;;;2.50;2.30;;;;;;;24.75;41.81;99872.09;5040774;28;20255;-81
2022/08/11 09:07:14;;;;;;;4.30;2.25;;;;;;;24.73;43.03;99866.09;5060496;28;20233;-81
2022/08/11 09:09:44;;;;;;;2.42;2.22;;;;;;;24.81;41.91;99862.66;5039481;28;20311;-80
2022/08/11 09:12:11;;;;;;;3.72;2.22;;;;;;;24.94;41.32;99861.84;5044616;28;20241;-81
2022/08/11 09:17:29;;;;;;;3.25;2.38;;;;;;;24.89;41.10;99855.66;5046635;28;20272;-82
2022/08/11 09:20:00;;;;;;;6.50;2.50;;;;;;;25.04;41.30;99855.31;5049489;28;20826;-81
2022/08/11 09:28:28;;;;;;;3.15;2.20;;;;;;;25.39;39.42;99848.97;5038799;28;20229;-82
2022/08/11 09:30:56;;;;;;;4.95;2.00;;;;;;;25.46;40.13;99850.47;5046880;28;20233;-81
2022/08/11 09:33:23;;;;;;;2.22;1.92;;;;;;;25.42;39.80;99848.34;5051436;28;20229;-81
2022/08/11 09:35:51;;;;;;;5.97;2.13;;;;;;;25.51;39.80;99842.94;5050496;28;20243;-81
2022/08/11 09:41:14;;;;;;;4.22;2.00;;;;;;;25.84;38.39;99833.31;5047889;28;20240;-81
2022/08/11 09:46:31;;;;;;;3.55;2.00;;;;;;;25.69;37.41;99828.22;5057660;28;20649;-81
2022/08/11 09:48:59;;;;;;;2.30;2.10;;;;;;;25.71;37.83;99817.72;5057008;28;20320;-81
2022/08/11 09:51:30;;;;;;;4.88;2.17;;;;;;;25.74;37.44;99821.78;5052674;28;20886;-81
2022/08/11 09:54:05;;;;;;;2.13;1.90;;;;;;;25.96;38.58;99821.72;5022731;28;20229;-81
2022/08/11 09:59:20;;;;;;;4.13;2.33;;;;;;;26.38;37.72;99814.78;5014038;28;20275;-80
2022/08/11 10:01:50;;;;;;;6.38;2.45;;;;;;;26.69;37.50;99814.66;5029350;28;20239;-81
2022/08/11 10:04:30;;;;;;;4.68;2.35;;;;;;;27.16;36.77;99804.69;5027548;28;20237;-81
2022/08/11 10:07:03;;;;;;;3.15;2.10;;;;;;;27.43;36.10;99798.84;5016847;28;20884;-81
2022/08/11 10:09:45;;;;;;;3.03;2.17;;;;;;;27.50;35.95;99809.34;5034208;28;20239;-82
2022/08/11 10:12:36;;;;;;;4.10;2.10;;;;;;;27.44;35.33;99802.38;5029619;28;20926;-82
2022/08/11 10:20:49;;;;;;;3.30;2.00;;;;;;;27.83;34.68;99804.88;5048081;28;20229;-82
2022/08/11 10:34:56;;;;;;;4.55;2.10;;;;;;;28.99;33.21;99793.38;5052323;28;20601;-81
2022/08/11 10:37:24;;;;;;;3.47;2.08;;;;;;;28.87;32.79;99792.19;5055432;28;20241;-81
2022/08/11 10:40:21;;;;;;;2.35;1.60;;;;;;;28.94;33.46;99782.53;5057270;28;20680;-81
2022/08/11 10:43:05;;;;;;;2.58;1.73;;;;;;;28.73;31.47;99788.09;5039976;28;20239;-81
2022/08/11 10:48:21;;;;;;;2.75;1.90;;;;;;;29.01;31.44;99777.31;5053542;28;20257;-80
2022/08/11 10:59:09;;;;;;;2.85;1.80;;;;;;;29.85;29.79;99767.66;5053024;28;20259;-80
2022/08/11 11:01:41;;;;;;;2.03;1.83;;;;;;;30.06;29.05;99757.31;5060381;28;20315;-81
2022/08/11 11:04:21;;;;;;;2.08;1.88;;;;;;;30.11;29.77;99765.38;5048624;28;20661;-81
2022/08/11 11:07:02;;;;;;;2.20;1.90;;;;;;;30.37;29.08;99759.50;5073978;28;20241;-81
2022/08/11 11:09:31;;;;;;;3.05;1.75;;;;;;;30.20;28.08;99760.53;5059502;28;20280;-82
2022/08/11 11:17:55;;;;;;;2.35;2.03;;;;;;;29.14;29.81;99754.13;5056551;28;20235;-81
2022/08/11 11:20:25;;;;;;;4.13;1.85;;;;;;;28.52;30.59;99760.47;5053428;28;20298;-81
2022/08/11 11:23:19;;;;;;;2.40;2.13;;;;;;;28.27;31.11;99751.25;5060007;28;20249;-82
2022/08/11 11:26:10;;;;;;;2.08;1.88;;;;;;;28.63;30.12;99747.09;5051608;28;20684;-81
2022/08/11 11:28:45;;;;;;;1.95;1.70;;;;;;;29.46;29.32;99741.47;5057297;28;20245;-81
2022/08/11 11:31:26;;;;;;;3.47;2.08;;;;;;;29.97;29.44;99735.34;5053118;28;20224;-81
2022/08/11 11:34:02;;;;;;;3.17;1.95;;;;;;;29.86;28.21;99744.41;5049923;28;20561;-82
2022/08/11 11:36:53;;;;;;;3.00;1.75;;;;;;;30.64;27.99;99730.31;5038720;28;20308;-80
2022/08/11 11:39:22;;;;;;;3.05;1.88;;;;;;;30.94;27.17;99721.31;5056699;28;20596;-81
2022/08/11 11:41:52;;;;;;;3.20;1.80;;;;;;;30.70;28.18;99735.25;5063257;28;20233;-81
2022/08/11 11:44:21;;;;;;;2.75;1.90;;;;;;;31.01;27.16;99720.75;5041624;28;20226;-82
2022/08/11 11:46:49;;;;;;;2.00;1.70;;;;;;;30.25;27.79;99724.38;5039967;28;20281;-82
2022/08/11 11:49:18;;;;;;;2.08;1.73;;;;;;;29.83;27.73;99723.81;5021408;28;20275;-82
2022/08/11 11:51:46;;;;;;;1.80;1.70;;;;;;;30.25;26.72;99715.28;5030733;28;20302;-82
2022/08/11 11:54:16;;;;;;;3.88;1.85;;;;;;;30.05;27.71;99719.81;5055772;28;21833;-82
2022/08/11 11:56:44;;;;;;;1.70;1.60;;;;;;;29.75;26.82;99710.94;5047299;28;21629;-83
2022/08/11 12:01:57;;;;;;;1.50;1.40;;;;;;;30.24;25.32;99703.41;5059581;28;20225;-82
2022/08/11 12:04:24;;;;;;;1.40;1.30;;;;;;;30.67;24.98;99700.00;5061386;28;20256;-83
2022/08/11 12:08:08;;;;;;;2.50;1.70;;;;;;;30.83;25.21;99689.78;5039323;28;20335;-82
2022/08/11 12:09:40;;;;;;;1.77;1.67;;;;;;;31.63;24.49;99692.34;5053982;28;20229;-82
2022/08/11 12:14:53;;;;;;;2.80;1.67;;;;;;;31.06;26.37;99692.81;5047193;28;20731;-82
2022/08/11 12:17:20;;;;;;;2.20;1.90;;;;;;;30.77;26.52;99685.66;5044997;28;20595;-82
2022/08/11 12:19:47;;;;;;;2.33;1.60;;;;;;;30.31;27.33;99697.31;5049160;28;20226;-83
2022/08/11 12:27:47;;;;;;;1.50;1.40;;;;;;;30.36;25.80;99672.19;5038897;28;20231;-82
2022/08/11 12:30:14;;;;;;;1.92;1.80;;;;;;;31.14;25.26;99666.94;5000982;28;20225;-82
2022/08/11 12:32:41;;;;;;;2.03;1.70;;;;;;;31.11;26.96;99667.66;5023395;28;20226;-82
2022/08/11 12:35:08;;;;;;;1.90;1.60;;;;;;;31.17;25.55;99668.22;5015385;28;20824;-82
2022/08/11 12:37:40;;;;;;;1.80;1.65;;;;;;;30.33;26.89;99673.69;5024462;28;20275;-82
2022/08/11 12:46:17;;;;;;;2.95;1.80;;;;;;;29.24;27.56;99655.19;5024181;28;20261;-82
2022/08/11 12:54:45;;;;;;;1.63;1.52;;;;;;;29.28;27.76;99655.31;5019433;28;20865;-82
2022/08/11 13:05:38;;;;;;;2.45;1.58;;;;;;;28.60;28.61;99638.34;5024432;28;20234;-82
2022/08/11 13:08:13;;;;;;;1.55;1.45;;;;;;;29.45;26.88;99644.06;5025193;28;20231;-82
2022/08/11 13:13:26;;;;;;;4.05;1.60;;;;;;;30.21;25.93;99645.28;5027424;28;20246;-82
2022/08/11 13:16:15;;;;;;;3.50;1.60;;;;;;;30.16;26.17;99636.09;5029629;28;20317;-82
2022/08/11 13:18:41;;;;;;;1.77;1.45;;;;;;;29.77;26.51;99642.34;5018163;28;21626;-82
2022/08/11 13:21:10;;;;;;;1.60;1.35;;;;;;;29.14;27.04;99638.28;5028801;28;20322;-82
2022/08/11 13:23:39;;;;;;;2.22;1.50;;;;;;;29.57;26.19;99633.06;5023097;28;20225;-82
2022/08/11 13:26:24;;;;;;;1.95;1.60;;;;;;;29.70;26.34;99625.56;5029095;28;20226;-82
2022/08/11 13:29:13;;;;;;;2.63;1.70;;;;;;;30.35;26.30;99629.13;5028365;28;20232;-82
2022/08/11 13:31:41;;;;;;;1.58;1.48;;;;;;;30.30;26.40;99629.38;5029595;28;20228;-83
2022/08/11 13:34:08;;;;;;;1.98;1.45;;;;;;;30.97;25.37;99631.28;5015264;28;20226;-82
2022/08/11 13:36:35;;;;;;;1.25;1.15;;;;;;;31.76;23.38;99632.94;5028604;28;20405;-82
2022/08/11 13:39:02;;;;;;;3.20;1.60;;;;;;;31.81;22.66;99613.25;5012920;28;20233;-82
2022/08/11 13:41:38;;;;;;;1.60;1.30;;;;;;;31.05;22.05;99616.50;5010187;28;20265;-83
2022/08/11 13:44:06;;;;;;;1.40;1.30;;;;;;;31.41;22.48;99605.16;5008940;28;20321;-82
2022/08/11 13:46:33;;;;;;;2.60;1.30;;;;;;;31.43;22.92;99610.34;5032578;28;20236;-83
2022/08/11 13:49:01;;;;;;;1.90;1.60;;;;;;;31.21;23.99;99619.28;5026924;28;20233;-82
2022/08/11 13:51:34;;;;;;;3.42;1.33;;;;;;;30.80;24.07;99618.56;5008216;28;20236;-82
2022/08/11 13:54:23;;;;;;;1.80;1.40;;;;;;;30.73;23.69;99621.16;5008623;28;20238;-80
2022/08/11 13:56:53;;;;;;;2.45;1.60;;;;;;;30.67;22.25;99608.75;5024642;28;20254;-82
2022/08/11 13:59:21;;;;;;;1.48;1.38;;;;;;;30.98;22.12;99606.00;5012698;28;20272;-82
2022/08/11 14:02:02;;;;;;;3.00;1.75;;;;;;;31.08;22.92;99606.69;4993887;28;20256;-82
2022/08/11 14:04:55;;;;;;;2.50;1.38;;;;;;;31.54;22.07;99605.06;5026512;28;20790;-83
2022/08/11 14:07:24;;;;;;;1.60;1.20;;;;;;;31.04;22.65;99601.88;5026622;28;20235;-82
2022/08/11 14:10:01;;;;;;;1.58;1.48;;;;;;;31.08;22.95;99593.66;5013678;28;20265;-82
2022/08/11 14:15:23;;;;;;;1.40;1.30;;;;;;;30.53;23.13;99589.00;5010555;28;20297;-83
2022/08/11 14:18:05;;;;;;;1.40;1.30;;;;;;;31.25;23.31;99592.50;5007331;28;20344;-82
2022/08/11 14:23:41;;;;;;;1.70;1.23;;;;;;;31.12;23.45;99589.03;5014794;28;20297;-83
2022/08/11 14:26:27;;;;;;;2.15;1.50;;;;;;;30.81;23.85;99583.44;5028053;28;20239;-81
2022/08/11 14:28:54;;;;;;;3.72;1.45;;;;;;;30.45;24.16;99588.00;5045871;28;20253;-83
2022/08/11 14:31:24;;;;;;;1.52;1.42;;;;;;;30.48;24.05;99586.50;5034348;28;20245;-82
2022/08/11 14:33:53;;;;;;;1.60;1.50;;;;;;;31.04;22.79;99582.50;5019869;28;20573;-82
2022/08/11 14:36:51;;;;;;;2.83;1.40;;;;;;;31.28;23.39;99577.94;5051563;28;20263;-83
2022/08/11 14:39:21;;;;;;;2.53;1.50;;;;;;;31.22;23.26;99576.59;5034840;28;20229;-83
2022/08/11 14:47:43;;;;;;;1.60;1.50;;;;;;;31.07;22.95;99580.19;5046925;28;20953;-83
2022/08/11 14:50:13;;;;;;;1.88;1.60;;;;;;;31.02;23.92;99579.31;5014895;28;20238;-82
2022/08/11 14:53:04;;;;;;;3.25;1.60;;;;;;;31.00;24.36;99583.53;5019120;28;20234;-82
2022/08/11 14:58:24;;;;;;;2.78;1.60;;;;;;;30.57;24.71;99570.53;5032531;28;20239;-82
2022/08/11 15:00:56;;;;;;;1.70;1.60;;;;;;;30.44;25.75;99580.03;5016944;28;20244;-83
2022/08/11 15:03:24;;;;;;;2.00;1.65;;;;;;;29.81;26.30;99565.16;5034520;28;20261;-83
2022/08/11 15:05:56;;;;;;;4.57;1.85;;;;;;;29.05;27.31;99574.94;5052157;28;20241;-83
2022/08/11 15:12:07;;;;;;;3.05;1.52;;;;;;;28.93;27.99;99569.41;5032746;28;20692;-83
2022/08/11 15:14:04;;;;;;;3.10;1.60;;;;;;;28.83;28.31;99562.41;5021478;28;20226;-83
2022/08/11 15:19:19;;;;;;;4.40;2.10;;;;;;;28.55;28.71;99555.88;5034272;28;20226;-82
2022/08/11 15:24:35;;;;;;;2.42;1.98;;;;;;;28.73;28.43;99560.06;5032781;28;20873;-82
2022/08/11 15:38:45;;;;;;;3.63;1.90;;;;;;;28.06;29.58;99538.31;5052379;28;20230;-83
2022/08/11 15:47:13;;;;;;;2.78;1.85;;;;;;;27.58;30.78;99542.41;5034797;28;20280;-82
2022/08/11 15:49:40;;;;;;;4.45;2.00;;;;;;;27.48;31.35;99542.78;5021474;28;20234;-82
2022/08/11 15:52:32;;;;;;;2.05;1.90;;;;;;;27.75;30.57;99538.75;5021777;28;20226;-83
2022/08/11 15:55:05;;;;;;;3.42;2.03;;;;;;;27.80;30.61;99529.47;5036382;28;20226;-83
2022/08/11 16:06:50;;;;;;;4.10;2.60;;;;;;;27.26;32.25;99528.50;5015266;28;20634;-82
2022/08/11 16:09:22;;;;;;;2.58;1.98;;;;;;;27.16;32.31;99524.19;5034846;28;20222;-85
2022/08/11 16:11:50;;;;;;;2.35;1.75;;;;;;;27.22;32.89;99527.56;5020129;28;20261;-81
2022/08/11 16:17:06;;;;;;;3.03;1.83;;;;;;;27.05;33.02;99525.72;5028871;28;20233;-84
2022/08/11 16:19:35;;;;;;;5.35;2.22;;;;;;;27.21;33.09;99517.69;5018736;28;20226;-84
2022/08/11 16:22:07;;;;;;;4.13;2.67;;;;;;;27.22;33.27;99525.59;5035408;28;20237;-83
2022/08/11 16:24:43;;;;;;;5.30;2.40;;;;;;;27.12;33.20;99515.78;5004852;28;20340;-84
2022/08/11 16:27:32;;;;;;;4.90;2.85;;;;;;;27.07;33.09;99520.66;5022936;28;20247;-84
2022/08/11 16:30:00;;;;;;;4.22;3.28;;;;;;;26.87;33.59;99511.25;5021758;28;20232;-83
2022/08/11 16:32:27;;;;;;;5.80;3.08;;;;;;;26.74;34.10;99503.97;5032034;28;20239;-84
2022/08/11 16:40:29;;;;;;;4.10;1.90;;;;;;;26.29;34.92;99520.09;5042086;28;20239;-84
2022/08/11 16:48:33;;;;;;;3.80;2.38;;;;;;;25.93;34.64;99528.69;5038844;28;20751;-84
2022/08/11 16:51:07;;;;;;;3.85;1.83;;;;;;;25.96;34.72;99521.72;5014550;28;20228;-84
2022/08/11 16:53:34;;;;;;;2.10;1.88;;;;;;;25.79;35.00;99519.78;5045293;28;20237;-84
2022/08/11 16:56:26;;;;;;;2.10;1.90;;;;;;;25.73;35.35;99521.06;5048552;28;20238;-84
2022/08/11 16:59:13;;;;;;;2.83;1.85;;;;;;;25.67;35.50;99519.59;5037997;28;20236;-83
2022/08/11 17:02:07;;;;;;;4.22;1.85;;;;;;;25.74;35.14;99520.75;5025797;28;20228;-84
2022/08/11 17:13:28;;;;;;;2.53;1.70;;;;;;;25.14;36.46;99523.38;5020334;28;20238;-85
2022/08/11 17:16:08;;;;;;;3.15;1.88;;;;;;;24.97;35.99;99521.38;5021797;28;20235;-85
2022/08/11 17:18:50;;;;;;;3.15;1.70;;;;;;;24.91;36.15;99514.44;5029824;28;20236;-85
2022/08/11 17:21:30;;;;;;;3.13;1.80;;;;;;;24.80;36.21;99514.97;5020733;28;20237;-85
2022/08/11 17:24:06;;;;;;;1.90;1.67;;;;;;;24.66;36.67;99517.00;5051512;28;20236;-85
2022/08/11 17:26:57;;;;;;;5.35;1.80;;;;;;;24.60;36.56;99521.81;5040364;28;20280;-85